sensor_id;sensor_type;location;lat;lon;timestamp;P1;durP1;ratioP1;P2;durP2;ratioP2
6537;SDS011;3302;52.508;13.454;2024-03-17T00:01:37;9.43;;;2.40;;
6537;SDS011;3302;52.508;13.454;2024-03-17T00:04:03;9.90;;;2.00;;
6537;SDS011;3302;52.508;13.454;2024-03-17T00:06:30;9.17;;;2.67;;
6537;SDS011;3302;52.508;13.454;2024-03-17T00:08:56;7.63;;;2.23;;
6537;SDS011;3302;52.508;13.454;2024-03-17T00:11:21;10.77;;;2.40;;
6537;SDS011;3302;52.508;13.454;2024-03-17T00:13:47;10.53;;;2.30;;
6537;SDS011;3302;52.508;13.454;2024-03-17T00:16:13;11.77;;;2.63;;
6537;SDS011;3302;52.508;13.454;2024-03-17T00:18:42;15.53;;;2.37;;
6537;SDS011;3302;52.508;13.454;2024-03-17T00:21:08;11.57;;;2.40;;
6537;SDS011;3302;52.508;13.454;2024-03-17T00:23:34;7.70;;;2.23;;
6537;SDS011;3302;52.508;13.454;2024-03-17T00:25:59;6.33;;;1.93;;
6537;SDS011;3302;52.508;13.454;2024-03-17T00:28:25;11.67;;;2.87;;
6537;SDS011;3302;52.508;13.454;2024-03-17T00:30:51;11.47;;;2.13;;
6537;SDS011;3302;52.508;13.454;2024-03-17T00:33:17;10.20;;;2.10;;
6537;SDS011;3302;52.508;13.454;2024-03-17T00:35:44;13.03;;;3.37;;
6537;SDS011;3302;52.508;13.454;2024-03-17T00:38:10;9.30;;;1.90;;
6537;SDS011;3302;52.508;13.454;2024-03-17T00:40:39;9.37;;;2.10;;
6537;SDS011;3302;52.508;13.454;2024-03-17T00:43:06;16.03;;;3.57;;
6537;SDS011;3302;52.508;13.454;2024-03-17T00:45:33;11.70;;;2.83;;
6537;SDS011;3302;52.508;13.454;2024-03-17T00:47:58;9.47;;;2.33;;
6537;SDS011;3302;52.508;13.454;2024-03-17T00:50:24;9.53;;;2.33;;
6537;SDS011;3302;52.508;13.454;2024-03-17T00:52:50;8.07;;;2.33;;
6537;SDS011;3302;52.508;13.454;2024-03-17T00:55:16;11.47;;;2.30;;
6537;SDS011;3302;52.508;13.454;2024-03-17T00:57:42;8.67;;;1.87;;
6537;SDS011;3302;52.508;13.454;2024-03-17T01:00:08;8.97;;;2.33;;
6537;SDS011;3302;52.508;13.454;2024-03-17T01:02:37;11.33;;;2.20;;
6537;SDS011;3302;52.508;13.454;2024-03-17T01:05:03;11.50;;;2.50;;
6537;SDS011;3302;52.508;13.454;2024-03-17T01:07:33;12.97;;;2.40;;
6537;SDS011;3302;52.508;13.454;2024-03-17T01:09:58;7.57;;;2.17;;
6537;SDS011;3302;52.508;13.454;2024-03-17T01:12:25;7.40;;;2.33;;
6537;SDS011;3302;52.508;13.454;2024-03-17T01:14:51;11.03;;;2.10;;
6537;SDS011;3302;52.508;13.454;2024-03-17T01:17:17;10.30;;;1.93;;
6537;SDS011;3302;52.508;13.454;2024-03-17T01:19:44;8.67;;;2.20;;
6537;SDS011;3302;52.508;13.454;2024-03-17T01:22:10;10.13;;;2.17;;
6537;SDS011;3302;52.508;13.454;2024-03-17T01:24:36;5.53;;;2.30;;
6537;SDS011;3302;52.508;13.454;2024-03-17T01:27:05;4.93;;;1.63;;
6537;SDS011;3302;52.508;13.454;2024-03-17T01:29:31;12.07;;;2.40;;
6537;SDS011;3302;52.508;13.454;2024-03-17T01:31:57;8.20;;;2.20;;
6537;SDS011;3302;52.508;13.454;2024-03-17T01:34:23;8.17;;;2.43;;
6537;SDS011;3302;52.508;13.454;2024-03-17T01:36:49;5.17;;;1.77;;
6537;SDS011;3302;52.508;13.454;2024-03-17T01:39:15;12.70;;;2.50;;
6537;SDS011;3302;52.508;13.454;2024-03-17T01:41:42;9.10;;;2.30;;
6537;SDS011;3302;52.508;13.454;2024-03-17T01:44:07;12.33;;;2.20;;
6537;SDS011;3302;52.508;13.454;2024-03-17T01:46:47;11.30;;;2.43;;
6537;SDS011;3302;52.508;13.454;2024-03-17T01:49:13;7.67;;;2.33;;
6537;SDS011;3302;52.508;13.454;2024-03-17T01:51:39;7.67;;;1.87;;
6537;SDS011;3302;52.508;13.454;2024-03-17T01:54:05;11.03;;;2.50;;
6537;SDS011;3302;52.508;13.454;2024-03-17T01:56:33;7.70;;;1.90;;
6537;SDS011;3302;52.508;13.454;2024-03-17T01:58:59;8.43;;;2.00;;
6537;SDS011;3302;52.508;13.454;2024-03-17T02:01:26;9.77;;;2.10;;
6537;SDS011;3302;52.508;13.454;2024-03-17T02:03:52;8.73;;;2.03;;
6537;SDS011;3302;52.508;13.454;2024-03-17T02:06:18;8.00;;;1.97;;
6537;SDS011;3302;52.508;13.454;2024-03-17T02:08:50;9.07;;;2.37;;
6537;SDS011;3302;52.508;13.454;2024-03-17T02:13:53;10.53;;;2.53;;
6537;SDS011;3302;52.508;13.454;2024-03-17T02:16:20;11.37;;;2.30;;
6537;SDS011;3302;52.508;13.454;2024-03-17T02:18:47;8.83;;;2.20;;
6537;SDS011;3302;52.508;13.454;2024-03-17T02:21:13;9.40;;;2.50;;
6537;SDS011;3302;52.508;13.454;2024-03-17T02:23:40;6.97;;;2.50;;
6537;SDS011;3302;52.508;13.454;2024-03-17T02:26:09;8.47;;;2.27;;
6537;SDS011;3302;52.508;13.454;2024-03-17T02:28:39;9.57;;;2.47;;
6537;SDS011;3302;52.508;13.454;2024-03-17T02:31:07;7.77;;;2.30;;
6537;SDS011;3302;52.508;13.454;2024-03-17T02:33:35;9.27;;;2.40;;
6537;SDS011;3302;52.508;13.454;2024-03-17T02:36:05;8.17;;;2.10;;
6537;SDS011;3302;52.508;13.454;2024-03-17T02:38:40;8.00;;;1.97;;
6537;SDS011;3302;52.508;13.454;2024-03-17T02:41:25;8.53;;;1.60;;
6537;SDS011;3302;52.508;13.454;2024-03-17T02:43:51;7.50;;;1.90;;
6537;SDS011;3302;52.508;13.454;2024-03-17T02:46:18;10.27;;;2.60;;
6537;SDS011;3302;52.508;13.454;2024-03-17T02:48:49;10.13;;;2.50;;
6537;SDS011;3302;52.508;13.454;2024-03-17T02:51:17;9.03;;;2.73;;
6537;SDS011;3302;52.508;13.454;2024-03-17T02:53:45;6.50;;;1.93;;
6537;SDS011;3302;52.508;13.454;2024-03-17T02:56:12;9.00;;;1.93;;
6537;SDS011;3302;52.508;13.454;2024-03-17T02:58:41;9.27;;;2.17;;
6537;SDS011;3302;52.508;13.454;2024-03-17T03:01:08;12.37;;;2.53;;
6537;SDS011;3302;52.508;13.454;2024-03-17T03:03:37;9.30;;;2.17;;
6537;SDS011;3302;52.508;13.454;2024-03-17T03:06:03;10.37;;;2.47;;
6537;SDS011;3302;52.508;13.454;2024-03-17T03:08:43;10.30;;;2.13;;
6537;SDS011;3302;52.508;13.454;2024-03-17T03:11:10;12.03;;;2.50;;
6537;SDS011;3302;52.508;13.454;2024-03-17T03:13:43;14.07;;;2.03;;
6537;SDS011;3302;52.508;13.454;2024-03-17T03:16:10;6.37;;;2.13;;
6537;SDS011;3302;52.508;13.454;2024-03-17T03:18:37;10.47;;;2.37;;
6537;SDS011;3302;52.508;13.454;2024-03-17T03:21:06;8.27;;;2.10;;
6537;SDS011;3302;52.508;13.454;2024-03-17T03:23:33;10.13;;;2.50;;
6537;SDS011;3302;52.508;13.454;2024-03-17T03:26:00;8.60;;;2.00;;
6537;SDS011;3302;52.508;13.454;2024-03-17T03:28:31;9.53;;;2.40;;
6537;SDS011;3302;52.508;13.454;2024-03-17T03:30:58;7.87;;;2.07;;
6537;SDS011;3302;52.508;13.454;2024-03-17T03:33:24;8.33;;;2.33;;
6537;SDS011;3302;52.508;13.454;2024-03-17T03:35:50;7.70;;;1.90;;
6537;SDS011;3302;52.508;13.454;2024-03-17T03:38:16;6.80;;;2.00;;
6537;SDS011;3302;52.508;13.454;2024-03-17T03:40:45;11.33;;;2.03;;
6537;SDS011;3302;52.508;13.454;2024-03-17T03:43:11;9.00;;;2.10;;
6537;SDS011;3302;52.508;13.454;2024-03-17T03:45:39;8.73;;;2.07;;
6537;SDS011;3302;52.508;13.454;2024-03-17T03:48:05;6.70;;;1.93;;
6537;SDS011;3302;52.508;13.454;2024-03-17T03:50:34;10.23;;;2.67;;
6537;SDS011;3302;52.508;13.454;2024-03-17T03:53:00;13.10;;;2.63;;
6537;SDS011;3302;52.508;13.454;2024-03-17T03:55:26;8.43;;;2.40;;
6537;SDS011;3302;52.508;13.454;2024-03-17T03:57:51;10.57;;;2.60;;
6537;SDS011;3302;52.508;13.454;2024-03-17T04:00:18;8.67;;;2.20;;
6537;SDS011;3302;52.508;13.454;2024-03-17T04:02:47;9.10;;;2.00;;
6537;SDS011;3302;52.508;13.454;2024-03-17T04:05:14;9.00;;;2.40;;
6537;SDS011;3302;52.508;13.454;2024-03-17T04:07:40;11.70;;;2.60;;
6537;SDS011;3302;52.508;13.454;2024-03-17T04:10:08;9.07;;;2.23;;
6537;SDS011;3302;52.508;13.454;2024-03-17T04:12:35;13.03;;;2.07;;
6537;SDS011;3302;52.508;13.454;2024-03-17T04:15:01;11.00;;;2.73;;
6537;SDS011;3302;52.508;13.454;2024-03-17T04:17:27;11.07;;;2.50;;
6537;SDS011;3302;52.508;13.454;2024-03-17T04:19:53;11.43;;;2.50;;
6537;SDS011;3302;52.508;13.454;2024-03-17T04:22:21;8.43;;;2.30;;
6537;SDS011;3302;52.508;13.454;2024-03-17T04:24:50;7.70;;;1.77;;
6537;SDS011;3302;52.508;13.454;2024-03-17T04:27:19;5.87;;;1.80;;
6537;SDS011;3302;52.508;13.454;2024-03-17T04:29:46;9.50;;;2.50;;
6537;SDS011;3302;52.508;13.454;2024-03-17T04:32:15;11.37;;;2.50;;
6537;SDS011;3302;52.508;13.454;2024-03-17T04:34:41;8.00;;;2.30;;
6537;SDS011;3302;52.508;13.454;2024-03-17T04:37:09;9.20;;;2.37;;
6537;SDS011;3302;52.508;13.454;2024-03-17T04:39:37;13.70;;;2.50;;
6537;SDS011;3302;52.508;13.454;2024-03-17T04:42:04;13.67;;;2.97;;
6537;SDS011;3302;52.508;13.454;2024-03-17T04:44:31;8.80;;;2.70;;
6537;SDS011;3302;52.508;13.454;2024-03-17T04:46:57;14.43;;;2.63;;
6537;SDS011;3302;52.508;13.454;2024-03-17T04:49:23;7.10;;;3.37;;
6537;SDS011;3302;52.508;13.454;2024-03-17T04:51:49;12.50;;;2.27;;
6537;SDS011;3302;52.508;13.454;2024-03-17T04:54:15;9.53;;;2.77;;
6537;SDS011;3302;52.508;13.454;2024-03-17T04:56:41;7.50;;;2.20;;
6537;SDS011;3302;52.508;13.454;2024-03-17T04:59:06;7.80;;;2.10;;
6537;SDS011;3302;52.508;13.454;2024-03-17T05:01:32;7.63;;;2.40;;
6537;SDS011;3302;52.508;13.454;2024-03-17T05:04:04;11.87;;;2.10;;
6537;SDS011;3302;52.508;13.454;2024-03-17T05:06:30;11.17;;;2.00;;
6537;SDS011;3302;52.508;13.454;2024-03-17T05:08:56;9.17;;;2.90;;
6537;SDS011;3302;52.508;13.454;2024-03-17T05:11:22;10.03;;;2.53;;
6537;SDS011;3302;52.508;13.454;2024-03-17T05:13:49;14.10;;;2.23;;
6537;SDS011;3302;52.508;13.454;2024-03-17T05:16:15;11.10;;;2.50;;
6537;SDS011;3302;52.508;13.454;2024-03-17T05:18:41;5.70;;;1.80;;
6537;SDS011;3302;52.508;13.454;2024-03-17T05:21:08;9.23;;;2.03;;
6537;SDS011;3302;52.508;13.454;2024-03-17T05:23:34;9.57;;;2.00;;
6537;SDS011;3302;52.508;13.454;2024-03-17T05:26:05;10.07;;;2.23;;
6537;SDS011;3302;52.508;13.454;2024-03-17T05:28:31;7.63;;;2.43;;
6537;SDS011;3302;52.508;13.454;2024-03-17T05:30:56;11.70;;;2.63;;
6537;SDS011;3302;52.508;13.454;2024-03-17T05:33:23;14.50;;;2.90;;
6537;SDS011;3302;52.508;13.454;2024-03-17T05:35:50;10.87;;;2.23;;
6537;SDS011;3302;52.508;13.454;2024-03-17T05:38:24;13.17;;;3.20;;
6537;SDS011;3302;52.508;13.454;2024-03-17T05:40:54;10.50;;;2.70;;
6537;SDS011;3302;52.508;13.454;2024-03-17T05:43:20;6.53;;;2.17;;
6537;SDS011;3302;52.508;13.454;2024-03-17T05:45:47;10.70;;;2.10;;
6537;SDS011;3302;52.508;13.454;2024-03-17T05:48:13;11.50;;;2.97;;
6537;SDS011;3302;52.508;13.454;2024-03-17T05:50:39;8.50;;;2.50;;
6537;SDS011;3302;52.508;13.454;2024-03-17T05:53:05;10.03;;;2.43;;
6537;SDS011;3302;52.508;13.454;2024-03-17T05:55:30;11.97;;;2.60;;
6537;SDS011;3302;52.508;13.454;2024-03-17T05:57:56;11.37;;;3.17;;
6537;SDS011;3302;52.508;13.454;2024-03-17T06:00:22;9.60;;;2.30;;
6537;SDS011;3302;52.508;13.454;2024-03-17T06:02:48;9.63;;;2.67;;
6537;SDS011;3302;52.508;13.454;2024-03-17T06:05:13;10.43;;;2.73;;
6537;SDS011;3302;52.508;13.454;2024-03-17T06:07:40;10.90;;;2.53;;
6537;SDS011;3302;52.508;13.454;2024-03-17T06:10:06;9.40;;;2.30;;
6537;SDS011;3302;52.508;13.454;2024-03-17T06:12:32;11.13;;;2.77;;
6537;SDS011;3302;52.508;13.454;2024-03-17T06:14:58;8.80;;;1.93;;
6537;SDS011;3302;52.508;13.454;2024-03-17T06:17:24;11.13;;;2.57;;
6537;SDS011;3302;52.508;13.454;2024-03-17T06:19:51;13.17;;;2.30;;
6537;SDS011;3302;52.508;13.454;2024-03-17T06:22:17;12.53;;;2.43;;
6537;SDS011;3302;52.508;13.454;2024-03-17T06:24:43;8.63;;;2.90;;
6537;SDS011;3302;52.508;13.454;2024-03-17T06:27:09;9.77;;;3.23;;
6537;SDS011;3302;52.508;13.454;2024-03-17T06:29:35;8.47;;;2.50;;
6537;SDS011;3302;52.508;13.454;2024-03-17T06:32:01;7.20;;;2.50;;
6537;SDS011;3302;52.508;13.454;2024-03-17T06:34:27;9.83;;;2.37;;
6537;SDS011;3302;52.508;13.454;2024-03-17T06:36:52;10.97;;;2.60;;
6537;SDS011;3302;52.508;13.454;2024-03-17T06:39:18;12.37;;;2.60;;
6537;SDS011;3302;52.508;13.454;2024-03-17T06:41:46;8.67;;;2.63;;
6537;SDS011;3302;52.508;13.454;2024-03-17T06:44:12;13.07;;;2.10;;
6537;SDS011;3302;52.508;13.454;2024-03-17T06:46:38;7.73;;;2.40;;
6537;SDS011;3302;52.508;13.454;2024-03-17T06:49:03;10.00;;;2.20;;
6537;SDS011;3302;52.508;13.454;2024-03-17T06:51:29;7.50;;;2.20;;
6537;SDS011;3302;52.508;13.454;2024-03-17T06:53:55;7.20;;;2.20;;
6537;SDS011;3302;52.508;13.454;2024-03-17T06:56:21;11.03;;;2.27;;
6537;SDS011;3302;52.508;13.454;2024-03-17T06:58:47;11.27;;;2.37;;
6537;SDS011;3302;52.508;13.454;2024-03-17T07:01:13;10.17;;;2.20;;
6537;SDS011;3302;52.508;13.454;2024-03-17T07:03:39;9.87;;;2.00;;
6537;SDS011;3302;52.508;13.454;2024-03-17T07:06:05;10.10;;;2.00;;
6537;SDS011;3302;52.508;13.454;2024-03-17T07:08:33;8.37;;;2.30;;
6537;SDS011;3302;52.508;13.454;2024-03-17T07:11:03;6.53;;;1.97;;
6537;SDS011;3302;52.508;13.454;2024-03-17T07:13:31;8.83;;;2.07;;
6537;SDS011;3302;52.508;13.454;2024-03-17T07:16:02;8.67;;;2.10;;
6537;SDS011;3302;52.508;13.454;2024-03-17T07:18:31;9.60;;;1.90;;
6537;SDS011;3302;52.508;13.454;2024-03-17T07:20:57;10.57;;;3.23;;
6537;SDS011;3302;52.508;13.454;2024-03-17T07:23:24;6.60;;;1.90;;
6537;SDS011;3302;52.508;13.454;2024-03-17T07:25:57;5.23;;;1.87;;
6537;SDS011;3302;52.508;13.454;2024-03-17T07:28:24;6.57;;;1.90;;
6537;SDS011;3302;52.508;13.454;2024-03-17T07:30:58;8.23;;;2.57;;
6537;SDS011;3302;52.508;13.454;2024-03-17T07:33:25;7.93;;;2.33;;
6537;SDS011;3302;52.508;13.454;2024-03-17T07:35:55;9.13;;;2.23;;
6537;SDS011;3302;52.508;13.454;2024-03-17T07:38:25;7.87;;;2.17;;
6537;SDS011;3302;52.508;13.454;2024-03-17T07:41:09;9.67;;;2.53;;
6537;SDS011;3302;52.508;13.454;2024-03-17T07:43:37;6.57;;;1.90;;
6537;SDS011;3302;52.508;13.454;2024-03-17T07:46:08;6.60;;;2.03;;
6537;SDS011;3302;52.508;13.454;2024-03-17T07:48:38;12.73;;;2.73;;
6537;SDS011;3302;52.508;13.454;2024-03-17T07:51:09;11.60;;;1.93;;
6537;SDS011;3302;52.508;13.454;2024-03-17T07:53:39;11.20;;;2.40;;
6537;SDS011;3302;52.508;13.454;2024-03-17T07:56:07;7.00;;;1.93;;
6537;SDS011;3302;52.508;13.454;2024-03-17T07:58:37;9.77;;;2.07;;
6537;SDS011;3302;52.508;13.454;2024-03-17T08:01:11;9.37;;;2.37;;
6537;SDS011;3302;52.508;13.454;2024-03-17T08:03:45;5.87;;;2.00;;
6537;SDS011;3302;52.508;13.454;2024-03-17T08:06:14;8.87;;;2.17;;
6537;SDS011;3302;52.508;13.454;2024-03-17T08:08:40;10.07;;;2.70;;
6537;SDS011;3302;52.508;13.454;2024-03-17T08:11:06;9.10;;;2.63;;
6537;SDS011;3302;52.508;13.454;2024-03-17T08:13:32;10.40;;;2.03;;
6537;SDS011;3302;52.508;13.454;2024-03-17T08:16:08;12.57;;;3.47;;
6537;SDS011;3302;52.508;13.454;2024-03-17T08:18:35;6.30;;;2.13;;
6537;SDS011;3302;52.508;13.454;2024-03-17T08:21:01;9.43;;;2.10;;
6537;SDS011;3302;52.508;13.454;2024-03-17T08:23:31;9.87;;;2.90;;
6537;SDS011;3302;52.508;13.454;2024-03-17T08:25:59;9.87;;;1.80;;
6537;SDS011;3302;52.508;13.454;2024-03-17T08:28:26;14.20;;;2.93;;
6537;SDS011;3302;52.508;13.454;2024-03-17T08:30:56;8.33;;;2.53;;
6537;SDS011;3302;52.508;13.454;2024-03-17T08:33:24;6.13;;;2.10;;
6537;SDS011;3302;52.508;13.454;2024-03-17T08:38:27;8.43;;;2.07;;
6537;SDS011;3302;52.508;13.454;2024-03-17T08:40:55;9.03;;;2.10;;
6537;SDS011;3302;52.508;13.454;2024-03-17T08:43:21;7.80;;;2.30;;
6537;SDS011;3302;52.508;13.454;2024-03-17T08:45:57;7.30;;;2.37;;
6537;SDS011;3302;52.508;13.454;2024-03-17T08:48:28;10.23;;;1.87;;
6537;SDS011;3302;52.508;13.454;2024-03-17T08:50:56;8.77;;;2.40;;
6537;SDS011;3302;52.508;13.454;2024-03-17T08:53:22;6.67;;;1.80;;
6537;SDS011;3302;52.508;13.454;2024-03-17T08:55:49;7.47;;;2.50;;
6537;SDS011;3302;52.508;13.454;2024-03-17T08:58:15;8.43;;;2.00;;
6537;SDS011;3302;52.508;13.454;2024-03-17T09:00:41;6.70;;;1.87;;
6537;SDS011;3302;52.508;13.454;2024-03-17T09:03:08;5.87;;;2.03;;
6537;SDS011;3302;52.508;13.454;2024-03-17T09:05:41;5.60;;;1.70;;
6537;SDS011;3302;52.508;13.454;2024-03-17T09:08:16;6.80;;;1.60;;
6537;SDS011;3302;52.508;13.454;2024-03-17T09:10:45;7.13;;;1.77;;
6537;SDS011;3302;52.508;13.454;2024-03-17T09:13:16;7.27;;;1.80;;
6537;SDS011;3302;52.508;13.454;2024-03-17T09:15:58;4.87;;;1.40;;
6537;SDS011;3302;52.508;13.454;2024-03-17T09:18:28;6.10;;;1.93;;
6537;SDS011;3302;52.508;13.454;2024-03-17T09:20:57;7.00;;;1.70;;
6537;SDS011;3302;52.508;13.454;2024-03-17T09:23:29;5.53;;;1.87;;
6537;SDS011;3302;52.508;13.454;2024-03-17T09:25:57;9.33;;;1.80;;
6537;SDS011;3302;52.508;13.454;2024-03-17T09:28:30;6.07;;;1.80;;
6537;SDS011;3302;52.508;13.454;2024-03-17T09:30:57;7.27;;;1.97;;
6537;SDS011;3302;52.508;13.454;2024-03-17T09:33:24;5.40;;;1.50;;
6537;SDS011;3302;52.508;13.454;2024-03-17T09:35:58;7.03;;;1.70;;
6537;SDS011;3302;52.508;13.454;2024-03-17T09:38:28;6.47;;;1.40;;
6537;SDS011;3302;52.508;13.454;2024-03-17T09:40:54;5.57;;;2.17;;
6537;SDS011;3302;52.508;13.454;2024-03-17T09:43:26;6.20;;;1.87;;
6537;SDS011;3302;52.508;13.454;2024-03-17T09:45:53;11.50;;;2.10;;
6537;SDS011;3302;52.508;13.454;2024-03-17T09:48:22;7.03;;;2.07;;
6537;SDS011;3302;52.508;13.454;2024-03-17T09:50:54;6.83;;;1.80;;
6537;SDS011;3302;52.508;13.454;2024-03-17T09:53:23;4.10;;;1.27;;
6537;SDS011;3302;52.508;13.454;2024-03-17T09:55:55;4.80;;;1.53;;
6537;SDS011;3302;52.508;13.454;2024-03-17T09:58:23;5.73;;;1.70;;
6537;SDS011;3302;52.508;13.454;2024-03-17T10:00:49;4.37;;;1.47;;
6537;SDS011;3302;52.508;13.454;2024-03-17T10:06:17;4.93;;;1.83;;
6537;SDS011;3302;52.508;13.454;2024-03-17T10:08:51;6.23;;;1.60;;
6537;SDS011;3302;52.508;13.454;2024-03-17T10:11:19;4.10;;;1.60;;
6537;SDS011;3302;52.508;13.454;2024-03-17T10:13:47;5.03;;;1.40;;
6537;SDS011;3302;52.508;13.454;2024-03-17T10:16:32;4.73;;;1.37;;
6537;SDS011;3302;52.508;13.454;2024-03-17T10:21:59;4.77;;;1.60;;
6537;SDS011;3302;52.508;13.454;2024-03-17T10:24:26;5.60;;;1.87;;
6537;SDS011;3302;52.508;13.454;2024-03-17T10:26:57;4.77;;;1.60;;
6537;SDS011;3302;52.508;13.454;2024-03-17T10:29:28;6.73;;;1.83;;
6537;SDS011;3302;52.508;13.454;2024-03-17T10:32:01;5.23;;;1.63;;
6537;SDS011;3302;52.508;13.454;2024-03-17T10:34:29;5.20;;;1.77;;
6537;SDS011;3302;52.508;13.454;2024-03-17T10:37:16;7.00;;;1.80;;
6537;SDS011;3302;52.508;13.454;2024-03-17T10:39:45;4.97;;;1.47;;
6537;SDS011;3302;52.508;13.454;2024-03-17T10:42:15;7.27;;;1.57;;
6537;SDS011;3302;52.508;13.454;2024-03-17T10:44:49;5.73;;;1.80;;
6537;SDS011;3302;52.508;13.454;2024-03-17T10:47:19;5.97;;;1.87;;
6537;SDS011;3302;52.508;13.454;2024-03-17T10:49:47;4.23;;;1.87;;
6537;SDS011;3302;52.508;13.454;2024-03-17T10:52:16;4.27;;;1.50;;
6537;SDS011;3302;52.508;13.454;2024-03-17T10:54:46;3.67;;;1.30;;
6537;SDS011;3302;52.508;13.454;2024-03-17T10:59:52;3.50;;;1.50;;
6537;SDS011;3302;52.508;13.454;2024-03-17T11:04:51;5.00;;;1.77;;
6537;SDS011;3302;52.508;13.454;2024-03-17T11:07:18;4.70;;;1.70;;
6537;SDS011;3302;52.508;13.454;2024-03-17T11:09:46;5.40;;;1.57;;
6537;SDS011;3302;52.508;13.454;2024-03-17T11:12:47;3.77;;;1.77;;
6537;SDS011;3302;52.508;13.454;2024-03-17T11:17:47;5.20;;;1.80;;
6537;SDS011;3302;52.508;13.454;2024-03-17T11:20:23;3.60;;;1.87;;
6537;SDS011;3302;52.508;13.454;2024-03-17T11:23:08;2.43;;;1.10;;
6537;SDS011;3302;52.508;13.454;2024-03-17T11:28:00;6.23;;;1.50;;
6537;SDS011;3302;52.508;13.454;2024-03-17T11:46:54;3.57;;;1.33;;
6537;SDS011;3302;52.508;13.454;2024-03-17T11:49:36;4.13;;;1.23;;
6537;SDS011;3302;52.508;13.454;2024-03-17T11:52:13;2.80;;;1.07;;
6537;SDS011;3302;52.508;13.454;2024-03-17T11:54:43;3.33;;;1.27;;
6537;SDS011;3302;52.508;13.454;2024-03-17T11:59:36;3.23;;;1.40;;
6537;SDS011;3302;52.508;13.454;2024-03-17T12:02:09;2.97;;;1.40;;
6537;SDS011;3302;52.508;13.454;2024-03-17T12:04:43;4.30;;;1.60;;
6537;SDS011;3302;52.508;13.454;2024-03-17T12:07:13;5.03;;;1.67;;
6537;SDS011;3302;52.508;13.454;2024-03-17T12:09:44;4.27;;;1.50;;
6537;SDS011;3302;52.508;13.454;2024-03-17T12:12:13;2.97;;;1.37;;
6537;SDS011;3302;52.508;13.454;2024-03-17T12:14:44;3.47;;;1.10;;
6537;SDS011;3302;52.508;13.454;2024-03-17T12:17:11;5.47;;;1.60;;
6537;SDS011;3302;52.508;13.454;2024-03-17T12:19:39;5.20;;;1.90;;
6537;SDS011;3302;52.508;13.454;2024-03-17T12:22:06;4.90;;;1.13;;
6537;SDS011;3302;52.508;13.454;2024-03-17T12:24:33;3.20;;;1.13;;
6537;SDS011;3302;52.508;13.454;2024-03-17T12:27:00;3.13;;;1.30;;
6537;SDS011;3302;52.508;13.454;2024-03-17T12:29:33;3.47;;;1.40;;
6537;SDS011;3302;52.508;13.454;2024-03-17T12:32:04;2.80;;;1.37;;
6537;SDS011;3302;52.508;13.454;2024-03-17T12:34:34;3.53;;;1.50;;
6537;SDS011;3302;52.508;13.454;2024-03-17T12:37:00;3.60;;;1.37;;
6537;SDS011;3302;52.508;13.454;2024-03-17T12:44:29;2.60;;;1.30;;
6537;SDS011;3302;52.508;13.454;2024-03-17T12:46:59;4.47;;;1.70;;
6537;SDS011;3302;52.508;13.454;2024-03-17T12:49:27;3.20;;;1.40;;
6537;SDS011;3302;52.508;13.454;2024-03-17T12:52:00;2.93;;;1.20;;
6537;SDS011;3302;52.508;13.454;2024-03-17T12:54:26;3.00;;;1.47;;
6537;SDS011;3302;52.508;13.454;2024-03-17T12:57:06;4.43;;;1.67;;
6537;SDS011;3302;52.508;13.454;2024-03-17T12:59:52;4.07;;;1.50;;
6537;SDS011;3302;52.508;13.454;2024-03-17T13:02:41;4.13;;;1.40;;
6537;SDS011;3302;52.508;13.454;2024-03-17T13:05:17;3.40;;;1.20;;
6537;SDS011;3302;52.508;13.454;2024-03-17T13:07:46;4.03;;;1.33;;
6537;SDS011;3302;52.508;13.454;2024-03-17T13:10:15;3.90;;;1.20;;
6537;SDS011;3302;52.508;13.454;2024-03-17T13:12:44;4.63;;;1.40;;
6537;SDS011;3302;52.508;13.454;2024-03-17T13:15:12;3.10;;;1.50;;
6537;SDS011;3302;52.508;13.454;2024-03-17T13:17:42;2.93;;;1.30;;
6537;SDS011;3302;52.508;13.454;2024-03-17T13:20:13;2.43;;;1.10;;
6537;SDS011;3302;52.508;13.454;2024-03-17T13:22:43;3.53;;;1.30;;
6537;SDS011;3302;52.508;13.454;2024-03-17T13:25:14;2.60;;;1.10;;
6537;SDS011;3302;52.508;13.454;2024-03-17T13:27:46;3.87;;;1.60;;
6537;SDS011;3302;52.508;13.454;2024-03-17T13:30:13;2.90;;;1.23;;
6537;SDS011;3302;52.508;13.454;2024-03-17T13:32:40;4.27;;;1.67;;
6537;SDS011;3302;52.508;13.454;2024-03-17T13:35:20;3.87;;;1.30;;
6537;SDS011;3302;52.508;13.454;2024-03-17T13:37:47;3.63;;;1.30;;
6537;SDS011;3302;52.508;13.454;2024-03-17T13:40:16;2.43;;;1.23;;
6537;SDS011;3302;52.508;13.454;2024-03-17T13:42:48;3.53;;;1.30;;
6537;SDS011;3302;52.508;13.454;2024-03-17T13:45:15;3.53;;;1.70;;
6537;SDS011;3302;52.508;13.454;2024-03-17T13:47:44;3.43;;;1.50;;
6537;SDS011;3302;52.508;13.454;2024-03-17T13:50:13;3.47;;;1.30;;
6537;SDS011;3302;52.508;13.454;2024-03-17T13:52:39;3.90;;;1.37;;
6537;SDS011;3302;52.508;13.454;2024-03-17T13:55:06;7.40;;;2.53;;
6537;SDS011;3302;52.508;13.454;2024-03-17T13:57:37;4.23;;;1.60;;
6537;SDS011;3302;52.508;13.454;2024-03-17T14:00:03;3.83;;;1.60;;
6537;SDS011;3302;52.508;13.454;2024-03-17T14:02:32;4.10;;;1.60;;
6537;SDS011;3302;52.508;13.454;2024-03-17T14:04:58;5.33;;;1.90;;
6537;SDS011;3302;52.508;13.454;2024-03-17T14:07:24;6.77;;;1.90;;
6537;SDS011;3302;52.508;13.454;2024-03-17T14:09:51;5.03;;;1.40;;
6537;SDS011;3302;52.508;13.454;2024-03-17T14:12:17;4.00;;;1.50;;
6537;SDS011;3302;52.508;13.454;2024-03-17T14:14:43;5.30;;;1.93;;
6537;SDS011;3302;52.508;13.454;2024-03-17T14:17:09;3.73;;;1.17;;
6537;SDS011;3302;52.508;13.454;2024-03-17T14:19:35;3.90;;;1.63;;
6537;SDS011;3302;52.508;13.454;2024-03-17T14:22:00;2.67;;;1.40;;
6537;SDS011;3302;52.508;13.454;2024-03-17T14:24:26;5.13;;;2.77;;
6537;SDS011;3302;52.508;13.454;2024-03-17T14:26:53;3.27;;;1.63;;
6537;SDS011;3302;52.508;13.454;2024-03-17T14:29:19;5.83;;;1.40;;
6537;SDS011;3302;52.508;13.454;2024-03-17T14:31:45;3.03;;;1.30;;
6537;SDS011;3302;52.508;13.454;2024-03-17T14:34:11;3.07;;;1.30;;
6537;SDS011;3302;52.508;13.454;2024-03-17T14:36:37;5.20;;;1.57;;
6537;SDS011;3302;52.508;13.454;2024-03-17T14:39:03;3.30;;;1.63;;
6537;SDS011;3302;52.508;13.454;2024-03-17T14:41:29;3.83;;;2.30;;
6537;SDS011;3302;52.508;13.454;2024-03-17T14:43:56;4.37;;;1.80;;
6537;SDS011;3302;52.508;13.454;2024-03-17T14:46:23;3.70;;;1.80;;
6537;SDS011;3302;52.508;13.454;2024-03-17T14:48:49;3.97;;;1.53;;
6537;SDS011;3302;52.508;13.454;2024-03-17T14:51:19;3.00;;;2.00;;
6537;SDS011;3302;52.508;13.454;2024-03-17T14:53:48;4.47;;;1.53;;
6537;SDS011;3302;52.508;13.454;2024-03-17T14:56:19;3.80;;;1.50;;
6537;SDS011;3302;52.508;13.454;2024-03-17T14:58:45;4.67;;;2.17;;
6537;SDS011;3302;52.508;13.454;2024-03-17T15:01:12;4.07;;;1.60;;
6537;SDS011;3302;52.508;13.454;2024-03-17T15:03:38;3.83;;;1.63;;
6537;SDS011;3302;52.508;13.454;2024-03-17T15:06:22;3.40;;;1.70;;
6537;SDS011;3302;52.508;13.454;2024-03-17T15:08:50;3.83;;;1.53;;
6537;SDS011;3302;52.508;13.454;2024-03-17T15:11:16;2.80;;;1.37;;
6537;SDS011;3302;52.508;13.454;2024-03-17T15:13:43;2.83;;;1.30;;
6537;SDS011;3302;52.508;13.454;2024-03-17T15:16:10;2.53;;;1.30;;
6537;SDS011;3302;52.508;13.454;2024-03-17T15:18:37;3.67;;;1.70;;
6537;SDS011;3302;52.508;13.454;2024-03-17T15:21:03;3.57;;;1.60;;
6537;SDS011;3302;52.508;13.454;2024-03-17T15:23:32;5.60;;;1.33;;
6537;SDS011;3302;52.508;13.454;2024-03-17T15:26:02;3.63;;;1.50;;
6537;SDS011;3302;52.508;13.454;2024-03-17T15:28:35;4.27;;;1.60;;
6537;SDS011;3302;52.508;13.454;2024-03-17T15:31:04;3.60;;;1.53;;
6537;SDS011;3302;52.508;13.454;2024-03-17T15:33:34;3.07;;;1.60;;
6537;SDS011;3302;52.508;13.454;2024-03-17T15:36:02;3.80;;;1.80;;
6537;SDS011;3302;52.508;13.454;2024-03-17T15:38:32;2.60;;;1.27;;
6537;SDS011;3302;52.508;13.454;2024-03-17T15:40:59;3.00;;;1.40;;
6537;SDS011;3302;52.508;13.454;2024-03-17T15:43:27;3.97;;;1.50;;
6537;SDS011;3302;52.508;13.454;2024-03-17T15:45:57;3.73;;;1.50;;
6537;SDS011;3302;52.508;13.454;2024-03-17T15:48:22;3.20;;;1.40;;
6537;SDS011;3302;52.508;13.454;2024-03-17T15:50:58;2.60;;;1.33;;